Time;durP1;ratioP1;P1;durP2;ratioP2;P2;SDS_P1;SDS_P2;PMS_P1;PMS_P2;Temp;Humidity;BMP_temperature;BMP_pressure;BME280_temperature;BME280_humidity;BME280_pressure;Samples;Min_cycle;Max_cycle;Signal;HPM_P1;HPM_P2
2022/03/10 00:02:02;;;;;;;3.03;2.83;;;;;;;;;;6129078;23;20202;-89
2022/03/10 00:04:31;;;;;;;3.63;3.53;;;;;;;;;;6155532;23;20192;-89
2022/03/10 00:07:00;;;;;;;4.10;3.63;;;;;;;;;;6128756;23;20188;-89
2022/03/10 00:09:29;;;;;;;2.83;2.63;;;;;;;;;;6129487;23;20181;-89
2022/03/10 00:11:59;;;;;;;8.63;5.73;;;;;;;;;;6128847;23;20172;-88
2022/03/10 00:14:27;;;;;;;7.40;5.60;;;;;;;;;;6129415;23;20179;-90
2022/03/10 00:16:56;;;;;;;6.33;4.23;;;;;;;;;;6128760;23;20181;-89
2022/03/10 00:19:24;;;;;;;3.30;3.03;;;;;;;;;;6129019;23;20268;-89
2022/03/10 00:21:53;;;;;;;2.10;2.00;;;;;;;;;;6128718;23;20174;-89
2022/03/10 00:24:21;;;;;;;1.10;1.10;;;;;;;;;;6154938;23;20173;-88
2022/03/10 00:26:50;;;;;;;0.90;0.90;;;;;;;;;;6154772;23;20176;-89
2022/03/10 00:29:20;;;;;;;3.03;2.93;;;;;;;;;;6155174;23;20180;-89
2022/03/10 00:31:48;;;;;;;1.37;1.37;;;;;;;;;;6128805;23;20265;-89
2022/03/10 00:34:17;;;;;;;5.13;3.00;;;;;;;;;;6129290;23;20182;-89
2022/03/10 00:36:47;;;;;;;3.40;3.20;;;;;;;;;;6129229;23;20183;-89
2022/03/10 00:39:16;;;;;;;3.40;2.93;;;;;;;;;;6128890;23;20205;-89
2022/03/10 00:41:44;;;;;;;3.20;3.00;;;;;;;;;;6128392;23;20209;-89
2022/03/10 00:44:13;;;;;;;1.10;1.10;;;;;;;;;;6128955;23;20177;-89
2022/03/10 00:46:43;;;;;;;1.83;1.83;;;;;;;;;;6154842;23;20199;-89
2022/03/10 00:49:11;;;;;;;1.93;1.87;;;;;;;;;;6128830;23;20258;-89
2022/03/10 00:51:40;;;;;;;2.70;2.60;;;;;;;;;;6156286;23;20168;-89
2022/03/10 00:54:08;;;;;;;0.70;0.70;;;;;;;;;;6130644;23;20180;-90
2022/03/10 00:56:37;;;;;;;7.40;6.93;;;;;;;;;;6156380;23;20183;-88
2022/03/10 00:59:08;;;;;;;2.40;2.20;;;;;;;;;;6130552;23;20188;-88
2022/03/10 01:01:36;;;;;;;0.80;0.80;;;;;;;;;;6130373;23;20177;-89
2022/03/10 01:04:07;;;;;;;1.33;1.33;;;;;;;;;;6156301;23;20255;-89
2022/03/10 01:06:35;;;;;;;0.80;0.80;;;;;;;;;;6130785;23;20217;-89
2022/03/10 01:09:04;;;;;;;2.07;2.07;;;;;;;;;;6130735;23;20192;-89
2022/03/10 01:11:33;;;;;;;2.40;2.40;;;;;;;;;;6130501;23;20203;-89
2022/03/10 01:14:01;;;;;;;1.30;1.30;;;;;;;;;;6156341;23;20184;-89
2022/03/10 01:16:30;;;;;;;1.93;1.83;;;;;;;;;;6130538;23;20178;-90
2022/03/10 01:18:59;;;;;;;0.80;0.80;;;;;;;;;;6130287;23;20215;-89
2022/03/10 01:21:28;;;;;;;4.70;4.50;;;;;;;;;;6130154;23;20175;-89
2022/03/10 01:23:57;;;;;;;4.67;4.27;;;;;;;;;;6130012;23;20195;-89
2022/03/10 01:26:25;;;;;;;7.43;2.43;;;;;;;;;;6130650;23;20186;-89
2022/03/10 01:28:54;;;;;;;8.57;7.93;;;;;;;;;;6130048;23;20183;-89
2022/03/10 01:31:22;;;;;;;8.50;6.87;;;;;;;;;;6156220;23;20171;-88
2022/03/10 01:33:51;;;;;;;1.07;1.07;;;;;;;;;;6130142;23;20206;-89
2022/03/10 01:36:19;;;;;;;5.03;3.83;;;;;;;;;;6130303;23;20215;-89
2022/03/10 01:38:49;;;;;;;2.73;2.53;;;;;;;;;;6130585;23;20176;-89
2022/03/10 01:41:17;;;;;;;8.10;5.60;;;;;;;;;;6130198;23;20218;-89
2022/03/10 01:43:59;;;;;;;2.20;2.20;;;;;;;;;;6130242;23;20201;-89
2022/03/10 01:46:28;;;;;;;1.77;1.77;;;;;;;;;;6156179;23;20176;-89
2022/03/10 01:48:56;;;;;;;6.90;5.43;;;;;;;;;;6156147;23;20183;-89
2022/03/10 01:51:26;;;;;;;7.93;3.33;;;;;;;;;;6155666;23;20199;-89
2022/03/10 01:53:58;;;;;;;5.83;5.23;;;;;;;;;;6130555;23;20172;-89
2022/03/10 01:56:27;;;;;;;1.93;1.83;;;;;;;;;;6129813;23;20177;-89
2022/03/10 01:58:55;;;;;;;1.10;1.10;;;;;;;;;;6155706;23;20183;-89
2022/03/10 02:01:24;;;;;;;2.60;2.40;;;;;;;;;;6130206;23;20176;-88
2022/03/10 02:03:55;;;;;;;2.70;2.60;;;;;;;;;;6129878;23;20204;-89
2022/03/10 02:06:23;;;;;;;1.10;1.10;;;;;;;;;;6129979;23;20183;-88
2022/03/10 02:11:40;;;;;;;7.83;6.50;;;;;;;;;;6129666;23;20176;-89
2022/03/10 02:19:41;;;;;;;1.33;1.33;;;;;;;;;;6129735;23;20533;-89
2022/03/10 02:22:11;;;;;;;2.13;2.03;;;;;;;;;;6129664;23;20208;-89
2022/03/10 02:24:40;;;;;;;6.10;5.03;;;;;;;;;;6155631;23;20196;-89
2022/03/10 02:27:15;;;;;;;4.13;3.30;;;;;;;;;;6129734;23;20186;-89
2022/03/10 02:29:44;;;;;;;4.93;4.50;;;;;;;;;;6129874;23;20470;-90
2022/03/10 02:32:13;;;;;;;2.10;2.03;;;;;;;;;;6128986;23;20179;-89
2022/03/10 02:34:42;;;;;;;0.90;0.90;;;;;;;;;;6129572;23;20177;-90
2022/03/10 02:37:13;;;;;;;0.80;0.80;;;;;;;;;;6130084;23;20210;-88
2022/03/10 02:39:42;;;;;;;0.80;0.80;;;;;;;;;;6129540;23;20179;-89
2022/03/10 02:42:12;;;;;;;0.80;0.80;;;;;;;;;;6129458;23;20235;-89
2022/03/10 02:44:41;;;;;;;0.80;0.80;;;;;;;;;;6155392;23;20191;-89
2022/03/10 02:47:10;;;;;;;0.90;0.90;;;;;;;;;;6155391;23;20175;-89
2022/03/10 02:49:40;;;;;;;1.20;1.20;;;;;;;;;;6129243;23;20208;-89
2022/03/10 02:52:08;;;;;;;7.87;3.17;;;;;;;;;;6129811;23;20179;-89
2022/03/10 02:54:45;;;;;;;1.57;1.57;;;;;;;;;;6129486;23;20182;-89
2022/03/10 02:57:13;;;;;;;0.80;0.80;;;;;;;;;;6129684;23;20183;-88
2022/03/10 02:59:42;;;;;;;0.90;0.90;;;;;;;;;;6129315;23;20179;-89
2022/03/10 03:02:12;;;;;;;3.73;3.60;;;;;;;;;;6129504;23;20187;-89
2022/03/10 03:04:42;;;;;;;6.70;6.30;;;;;;;;;;6128998;23;20258;-90
2022/03/10 03:07:11;;;;;;;0.80;0.80;;;;;;;;;;6129369;23;20179;-90
2022/03/10 03:09:39;;;;;;;1.00;1.00;;;;;;;;;;6129260;23;20191;-89
2022/03/10 03:12:09;;;;;;;1.67;1.67;;;;;;;;;;6129759;23;20181;-90
2022/03/10 03:14:38;;;;;;;1.73;1.73;;;;;;;;;;6129132;23;20217;-89
2022/03/10 03:17:06;;;;;;;1.07;1.07;;;;;;;;;;6129654;23;20206;-89
2022/03/10 03:19:35;;;;;;;0.80;0.80;;;;;;;;;;6128994;23;20239;-89
2022/03/10 03:22:03;;;;;;;1.10;1.10;;;;;;;;;;6129319;23;20176;-89
2022/03/10 03:24:32;;;;;;;0.80;0.80;;;;;;;;;;6129659;23;20204;-89
2022/03/10 03:27:01;;;;;;;3.03;2.93;;;;;;;;;;6154941;23;20178;-89
2022/03/10 03:29:31;;;;;;;0.90;0.90;;;;;;;;;;6128999;23;20202;-89
2022/03/10 03:31:59;;;;;;;8.13;4.83;;;;;;;;;;6129543;23;20183;-89
2022/03/10 03:34:27;;;;;;;0.83;0.83;;;;;;;;;;6129159;23;20181;-89
2022/03/10 03:36:56;;;;;;;0.80;0.80;;;;;;;;;;6155100;23;20179;-88
2022/03/10 03:39:24;;;;;;;1.10;1.10;;;;;;;;;;6128391;23;20179;-89
2022/03/10 03:41:53;;;;;;;1.43;1.43;;;;;;;;;;6155148;23;20209;-89
2022/03/10 03:44:21;;;;;;;1.00;1.00;;;;;;;;;;6128837;23;20192;-89
2022/03/10 03:46:51;;;;;;;5.37;4.97;;;;;;;;;;6129364;23;20183;-90
2022/03/10 03:49:20;;;;;;;0.90;0.90;;;;;;;;;;6129146;23;20187;-89
2022/03/10 03:51:48;;;;;;;1.43;1.43;;;;;;;;;;6155176;23;20224;-89
2022/03/10 03:54:17;;;;;;;1.70;1.70;;;;;;;;;;6128835;23;20186;-89
2022/03/10 03:56:45;;;;;;;1.87;1.87;;;;;;;;;;6129672;23;20493;-89
2022/03/10 03:59:14;;;;;;;5.73;5.37;;;;;;;;;;6128964;23;20193;-90
2022/03/10 04:01:42;;;;;;;0.90;0.90;;;;;;;;;;6129461;23;20181;-89
2022/03/10 04:04:13;;;;;;;1.43;1.43;;;;;;;;;;6128841;23;20204;-89
2022/03/10 04:06:41;;;;;;;0.93;0.93;;;;;;;;;;6155379;23;20175;-89
2022/03/10 04:09:09;;;;;;;1.00;1.00;;;;;;;;;;6128926;23;20178;-89
2022/03/10 04:11:38;;;;;;;7.83;7.00;;;;;;;;;;6154825;23;20227;-88
2022/03/10 04:14:07;;;;;;;6.80;5.37;;;;;;;;;;6128739;23;20202;-90
2022/03/10 04:16:35;;;;;;;3.70;3.50;;;;;;;;;;6128842;23;20275;-89
2022/03/10 04:19:04;;;;;;;7.73;6.00;;;;;;;;;;6128770;23;20211;-89
2022/03/10 04:21:34;;;;;;;1.77;1.67;;;;;;;;;;6128989;23;20180;-90
2022/03/10 04:24:03;;;;;;;2.27;2.17;;;;;;;;;;6154541;23;20172;-89
2022/03/10 04:26:32;;;;;;;3.80;3.50;;;;;;;;;;6130965;23;20201;-89
2022/03/10 04:29:00;;;;;;;12.43;8.30;;;;;;;;;;6156698;23;20259;-88
2022/03/10 04:31:28;;;;;;;7.63;3.90;;;;;;;;;;6130894;23;20181;-89
2022/03/10 04:33:57;;;;;;;3.53;3.23;;;;;;;;;;6130723;23;20206;-89
2022/03/10 04:36:25;;;;;;;6.13;2.97;;;;;;;;;;6130636;23;20176;-89
2022/03/10 04:38:55;;;;;;;7.17;6.33;;;;;;;;;;6130455;23;20183;-89
2022/03/10 04:41:24;;;;;;;1.00;1.00;;;;;;;;;;6130539;23;20208;-89
2022/03/10 04:43:53;;;;;;;1.93;1.93;;;;;;;;;;6130773;23;20199;-89
2022/03/10 04:46:22;;;;;;;2.67;2.57;;;;;;;;;;6156536;23;20215;-89
2022/03/10 04:48:50;;;;;;;3.30;3.10;;;;;;;;;;6155441;23;20179;-89
2022/03/10 04:51:19;;;;;;;5.17;3.17;;;;;;;;;;6156236;23;20172;-89
2022/03/10 04:53:48;;;;;;;6.20;5.23;;;;;;;;;;6130583;23;20175;-90
2022/03/10 04:56:17;;;;;;;5.30;3.73;;;;;;;;;;6130477;23;20173;-89
2022/03/10 04:58:46;;;;;;;2.53;2.40;;;;;;;;;;6130971;23;20235;-89
2022/03/10 05:01:14;;;;;;;3.67;3.23;;;;;;;;;;6155421;23;20176;-89
2022/03/10 05:03:43;;;;;;;3.77;3.40;;;;;;;;;;6130418;23;20529;-89
2022/03/10 05:06:12;;;;;;;15.27;11.13;;;;;;;;;;6130128;23;20192;-89
2022/03/10 05:08:40;;;;;;;13.00;9.53;;;;;;;;;;6155001;23;20182;-89
2022/03/10 05:11:09;;;;;;;8.37;4.73;;;;;;;;;;6130209;23;20176;-89
2022/03/10 05:13:39;;;;;;;7.70;6.50;;;;;;;;;;6156333;23;20171;-89
2022/03/10 05:16:08;;;;;;;5.43;4.57;;;;;;;;;;6130204;23;20186;-89
2022/03/10 05:18:37;;;;;;;6.90;5.00;;;;;;;;;;6130358;23;20204;-89
2022/03/10 05:21:05;;;;;;;4.93;3.80;;;;;;;;;;6130223;23;20236;-89
2022/03/10 05:23:36;;;;;;;3.30;3.10;;;;;;;;;;6130701;23;20176;-89
2022/03/10 05:26:05;;;;;;;3.50;3.30;;;;;;;;;;6155674;23;20191;-89
2022/03/10 05:28:33;;;;;;;1.73;1.73;;;;;;;;;;6130542;23;20430;-89
2022/03/10 05:31:03;;;;;;;2.93;2.63;;;;;;;;;;6130047;23;20203;-89
2022/03/10 05:33:32;;;;;;;3.80;3.50;;;;;;;;;;6130325;23;20234;-89
2022/03/10 05:36:00;;;;;;;10.10;8.13;;;;;;;;;;6129809;23;20187;-88
2022/03/10 05:38:29;;;;;;;8.73;5.77;;;;;;;;;;6130681;23;20243;-89
2022/03/10 05:40:57;;;;;;;13.23;5.90;;;;;;;;;;6155698;23;20180;-89
2022/03/10 05:43:26;;;;;;;7.57;6.83;;;;;;;;;;6129440;23;20302;-89
2022/03/10 05:45:54;;;;;;;2.33;2.13;;;;;;;;;;6155955;23;20188;-89
2022/03/10 05:48:24;;;;;;;2.63;2.43;;;;;;;;;;6130076;23;20218;-89
2022/03/10 05:50:52;;;;;;;13.70;10.93;;;;;;;;;;6130390;23;20182;-90
2022/03/10 05:53:21;;;;;;;15.03;6.23;;;;;;;;;;6155763;23;20182;-89
2022/03/10 05:55:50;;;;;;;2.87;2.73;;;;;;;;;;6130151;23;20190;-89
2022/03/10 05:58:18;;;;;;;8.27;5.93;;;;;;;;;;6129876;23;20176;-89
2022/03/10 06:00:47;;;;;;;3.47;3.17;;;;;;;;;;6129835;23;20186;-88
2022/03/10 06:03:16;;;;;;;5.57;4.70;;;;;;;;;;6130047;23;20250;-89
2022/03/10 06:05:46;;;;;;;4.83;3.43;;;;;;;;;;6129488;23;20235;-87
2022/03/10 06:08:14;;;;;;;3.43;3.13;;;;;;;;;;6129743;23;20172;-89
2022/03/10 06:10:42;;;;;;;3.93;3.13;;;;;;;;;;6129880;23;20195;-89
2022/03/10 06:13:11;;;;;;;2.83;2.67;;;;;;;;;;6130267;23;20204;-89
2022/03/10 06:15:40;;;;;;;0.90;0.90;;;;;;;;;;6129611;23;20179;-90
2022/03/10 06:18:09;;;;;;;4.20;2.53;;;;;;;;;;6155686;23;20168;-89
2022/03/10 06:20:37;;;;;;;2.23;2.13;;;;;;;;;;6130282;23;20175;-89
2022/03/10 06:23:09;;;;;;;3.10;3.00;;;;;;;;;;6130056;23;20175;-89
2022/03/10 06:25:39;;;;;;;4.10;2.60;;;;;;;;;;6129575;23;20191;-90
2022/03/10 06:28:09;;;;;;;3.20;3.10;;;;;;;;;;6156308;23;20191;-89
2022/03/10 06:30:38;;;;;;;1.17;1.17;;;;;;;;;;6129629;23;20182;-89
2022/03/10 06:33:06;;;;;;;1.63;1.63;;;;;;;;;;6156058;23;20175;-88
2022/03/10 06:35:35;;;;;;;0.80;0.80;;;;;;;;;;6129359;23;20176;-89
2022/03/10 06:38:09;;;;;;;1.97;1.97;;;;;;;;;;6129365;23;20223;-88
2022/03/10 06:40:39;;;;;;;3.37;2.37;;;;;;;;;;6129893;23;20207;-89
2022/03/10 06:43:08;;;;;;;11.87;7.37;;;;;;;;;;6130221;23;20212;-87
2022/03/10 06:45:36;;;;;;;6.30;4.93;;;;;;;;;;6129133;23;20200;-87
2022/03/10 06:48:05;;;;;;;8.97;7.83;;;;;;;;;;6129141;23;20180;-88
2022/03/10 06:50:34;;;;;;;5.40;4.87;;;;;;;;;;6129809;23;20266;-88
2022/03/10 06:53:02;;;;;;;3.93;3.53;;;;;;;;;;6129378;23;20197;-88
2022/03/10 06:55:31;;;;;;;6.60;3.07;;;;;;;;;;6129400;23;20175;-87
2022/03/10 06:58:02;;;;;;;4.23;3.93;;;;;;;;;;6129445;23;20180;-88
2022/03/10 07:00:30;;;;;;;1.23;1.23;;;;;;;;;;6155360;23;20183;-88
2022/03/10 07:02:59;;;;;;;5.83;4.40;;;;;;;;;;6129490;23;20202;-88
2022/03/10 07:05:28;;;;;;;7.33;5.40;;;;;;;;;;6129554;23;20210;-88
2022/03/10 07:07:57;;;;;;;2.13;2.03;;;;;;;;;;6129358;23;20180;-88
2022/03/10 07:10:26;;;;;;;5.03;4.33;;;;;;;;;;6129210;23;20179;-88
2022/03/10 07:12:55;;;;;;;3.10;3.00;;;;;;;;;;6129581;23;20187;-87
2022/03/10 07:15:25;;;;;;;1.70;1.70;;;;;;;;;;6129564;23;20175;-87
2022/03/10 07:17:54;;;;;;;2.50;2.30;;;;;;;;;;6129800;23;20176;-88
2022/03/10 07:20:23;;;;;;;6.37;5.60;;;;;;;;;;6129602;23;20183;-88
2022/03/10 07:22:54;;;;;;;5.77;4.10;;;;;;;;;;6129212;23;20172;-89
2022/03/10 07:25:23;;;;;;;5.73;5.33;;;;;;;;;;6154821;23;20245;-88
2022/03/10 07:27:51;;;;;;;6.47;5.90;;;;;;;;;;6129609;23;20231;-87
2022/03/10 07:30:20;;;;;;;4.63;4.33;;;;;;;;;;6129345;23;20239;-88
2022/03/10 07:32:57;;;;;;;0.90;0.90;;;;;;;;;;6129245;23;20207;-88
2022/03/10 07:35:31;;;;;;;2.13;2.13;;;;;;;;;;6129092;23;20238;-86
2022/03/10 07:38:05;;;;;;;3.00;2.57;;;;;;;;;;6127031;23;20184;-88
2022/03/10 07:40:36;;;;;;;5.63;3.53;;;;;;;;;;6126261;23;20258;-88
2022/03/10 07:43:05;;;;;;;8.67;6.97;;;;;;;;;;6126594;23;20212;-88
2022/03/10 07:45:37;;;;;;;10.63;7.70;;;;;;;;;;6127972;23;20200;-88
2022/03/10 07:48:13;;;;;;;2.67;2.47;;;;;;;;;;6129541;23;20181;-88
2022/03/10 07:50:41;;;;;;;2.60;2.50;;;;;;;;;;6129507;23;20317;-86
2022/03/10 07:53:11;;;;;;;6.33;5.40;;;;;;;;;;6155403;23;20191;-87
2022/03/10 07:55:41;;;;;;;7.23;5.40;;;;;;;;;;6129311;23;20211;-88
2022/03/10 07:58:11;;;;;;;4.60;3.73;;;;;;;;;;6129074;23;20189;-87
2022/03/10 08:00:42;;;;;;;7.60;5.77;;;;;;;;;;6130997;23;20243;-88
2022/03/10 08:03:13;;;;;;;9.67;3.53;;;;;;;;;;6131637;23;20201;-88
2022/03/10 08:05:42;;;;;;;8.40;6.00;;;;;;;;;;6131300;23;20238;-87
2022/03/10 08:08:10;;;;;;;1.53;1.50;;;;;;;;;;6131591;23;20181;-86
2022/03/10 08:10:39;;;;;;;5.83;5.13;;;;;;;;;;6131480;23;20176;-87
2022/03/10 08:13:09;;;;;;;5.23;4.90;;;;;;;;;;6131283;23;20189;-87
2022/03/10 08:15:38;;;;;;;5.93;5.53;;;;;;;;;;6131312;23;20176;-86
2022/03/10 08:18:07;;;;;;;20.10;11.90;;;;;;;;;;6131475;23;20177;-86
2022/03/10 08:20:39;;;;;;;8.47;6.13;;;;;;;;;;6131236;23;20208;-87
2022/03/10 08:23:16;;;;;;;9.53;6.87;;;;;;;;;;6132360;23;20188;-87
2022/03/10 08:25:53;;;;;;;7.43;6.27;;;;;;;;;;6129871;23;20178;-86
2022/03/10 08:31:15;;;;;;;19.20;6.93;;;;;;;;;;6118676;23;20182;-87
2022/03/10 08:33:51;;;;;;;6.40;4.50;;;;;;;;;;6131814;23;20351;-89
2022/03/10 08:36:42;;;;;;;9.10;5.77;;;;;;;;;;6126372;23;20178;-88
2022/03/10 08:39:15;;;;;;;8.23;4.80;;;;;;;;;;6129469;23;20256;-87
2022/03/10 08:41:45;;;;;;;10.27;7.10;;;;;;;;;;6129605;23;20300;-88
2022/03/10 08:44:14;;;;;;;13.73;6.67;;;;;;;;;;6130638;23;20176;-87
2022/03/10 08:47:02;;;;;;;4.77;4.37;;;;;;;;;;6129480;23;20203;-88
2022/03/10 08:49:38;;;;;;;6.03;5.43;;;;;;;;;;6129178;23;20189;-88
2022/03/10 08:56:06;;;;;;;22.97;12.77;;;;;;;;;;6134200;23;20249;-88
2022/03/10 08:59:23;;;;;;;15.87;11.30;;;;;;;;;;6134236;23;20269;-89
2022/03/10 09:02:24;;;;;;;30.93;20.43;;;;;;;;;;6153641;23;20749;-87
2022/03/10 09:04:54;;;;;;;24.77;16.87;;;;;;;;;;6128939;23;20198;-88
2022/03/10 09:07:28;;;;;;;21.43;11.80;;;;;;;;;;6129152;23;20221;-88
2022/03/10 09:10:16;;;;;;;21.53;13.20;;;;;;;;;;6128856;23;20243;-88
2022/03/10 09:12:59;;;;;;;16.13;8.93;;;;;;;;;;6128962;23;20205;-88
2022/03/10 09:15:46;;;;;;;1.30;1.30;;;;;;;;;;6129183;23;20187;-88
2022/03/10 09:18:41;;;;;;;23.37;14.10;;;;;;;;;;6128883;23;20185;-88
2022/03/10 09:21:47;;;;;;;2.20;2.10;;;;;;;;;;6129480;23;20186;-88
2022/03/10 09:30:42;;;;;;;20.93;15.17;;;;;;;;;;6130590;23;20180;-87
2022/03/10 09:33:16;;;;;;;21.13;12.63;;;;;;;;;;6130086;23;20190;-87
2022/03/10 09:35:46;;;;;;;23.70;13.20;;;;;;;;;;6129995;23;20176;-88
2022/03/10 09:38:19;;;;;;;10.10;4.70;;;;;;;;;;6129464;23;20186;-89
2022/03/10 09:52:52;;;;;;;25.77;17.67;;;;;;;;;;5942349;24;20171;-89
2022/03/10 09:55:40;;;;;;;13.70;8.83;;;;;;;;;;6045273;23;20173;-87
2022/03/10 09:58:23;;;;;;;11.80;6.47;;;;;;;;;;6069294;23;20181;-87
2022/03/10 10:00:59;;;;;;;16.30;11.03;;;;;;;;;;6072985;23;20213;-85
2022/03/10 10:19:08;;;;;;;7.67;6.87;;;;;;;;;;5844681;24;20202;-88
2022/03/10 10:22:27;;;;;;;10.00;4.90;;;;;;;;;;5877247;24;20260;-88
2022/03/10 10:29:19;;;;;;;;;;;;;;;;;;;;;
2022/03/10 10:32:13;;;;;;;5.40;4.30;;;;;;;;;;5863147;24;20189;-87
2022/03/10 10:35:43;;;;;;;14.03;8.67;;;;;;;;;;5937948;23;20189;-87
2022/03/10 10:38:37;;;;;;;22.23;16.10;;;;;;;;;;6052969;23;20179;-88
2022/03/10 10:49:18;;;;;;;1.27;1.17;;;;;;;;;;5954042;23;20219;-88
2022/03/10 10:55:24;;;;;;;6.37;5.67;;;;;;;;;;5954817;24;20211;-88
2022/03/10 10:58:00;;;;;;;18.10;9.60;;;;;;;;;;5994095;23;20182;-88
2022/03/10 11:01:07;;;;;;;18.87;10.57;;;;;;;;;;6085856;23;20176;-88
2022/03/10 11:03:39;;;;;;;28.67;18.80;;;;;;;;;;6098599;23;20227;-88
2022/03/10 11:06:14;;;;;;;21.63;12.37;;;;;;;;;;6099120;23;20184;-87
2022/03/10 11:08:43;;;;;;;19.37;13.80;;;;;;;;;;6098638;23;20202;-88
2022/03/10 11:11:14;;;;;;;7.73;4.73;;;;;;;;;;6099494;23;20232;-88
2022/03/10 11:13:44;;;;;;;23.17;16.70;;;;;;;;;;6098517;23;20594;-87
2022/03/10 11:16:21;;;;;;;19.00;16.33;;;;;;;;;;6104892;23;20495;-88
2022/03/10 11:19:04;;;;;;;2.73;2.10;;;;;;;;;;6094234;23;20177;-89
2022/03/10 11:22:01;;;;;;;24.77;18.60;;;;;;;;;;6098422;23;20172;-88
2022/03/10 11:24:53;;;;;;;23.87;16.33;;;;;;;;;;6033970;23;20181;-88
2022/03/10 11:27:40;;;;;;;16.13;13.10;;;;;;;;;;6086221;23;20181;-89
2022/03/10 11:30:26;;;;;;;25.37;21.73;;;;;;;;;;6099062;23;20181;-88
2022/03/10 11:33:31;;;;;;;14.10;9.70;;;;;;;;;;6098642;23;20213;-86
2022/03/10 11:36:24;;;;;;;16.57;10.50;;;;;;;;;;6099199;23;20227;-87
2022/03/10 11:42:43;;;;;;;15.70;11.00;;;;;;;;;;6098151;23;20261;-87
2022/03/10 11:45:46;;;;;;;9.80;7.23;;;;;;;;;;6097761;23;20218;-89
2022/03/10 11:49:09;;;;;;;8.33;5.60;;;;;;;;;;6097969;23;20198;-89
2022/03/10 11:51:56;;;;;;;2.43;2.33;;;;;;;;;;6098303;23;20188;-88
2022/03/10 11:54:42;;;;;;;18.40;11.87;;;;;;;;;;6098573;23;20189;-88
2022/03/10 12:01:23;;;;;;;22.27;13.90;;;;;;;;;;5959775;23;20181;-88
2022/03/10 12:04:02;;;;;;;19.33;11.87;;;;;;;;;;5982439;23;20213;-86
2022/03/10 12:06:50;;;;;;;6.10;5.50;;;;;;;;;;6006506;23;20188;-86
2022/03/10 12:09:29;;;;;;;4.57;3.27;;;;;;;;;;5998379;23;20229;-86
2022/03/10 12:12:15;;;;;;;12.27;7.93;;;;;;;;;;5981810;23;20260;-87
2022/03/10 12:15:26;;;;;;;12.40;7.80;;;;;;;;;;5981707;23;20182;-86
2022/03/10 12:18:13;;;;;;;10.53;5.80;;;;;;;;;;5982917;23;20206;-86
2022/03/10 12:21:03;;;;;;;9.67;6.90;;;;;;;;;;6006727;23;20549;-87
2022/03/10 12:23:53;;;;;;;17.87;12.03;;;;;;;;;;5982940;23;20294;-87
2022/03/10 12:26:30;;;;;;;21.70;15.83;;;;;;;;;;5984428;23;20182;-84
2022/03/10 12:29:06;;;;;;;7.97;5.63;;;;;;;;;;5984373;23;20205;-86
2022/03/10 12:31:39;;;;;;;15.13;10.27;;;;;;;;;;5984171;23;20186;-84
2022/03/10 12:34:26;;;;;;;21.90;13.70;;;;;;;;;;5983786;23;20265;-85
2022/03/10 12:36:59;;;;;;;11.67;8.10;;;;;;;;;;5984438;23;20321;-87
2022/03/10 12:40:06;;;;;;;1.97;1.87;;;;;;;;;;6099308;23;20203;-87
2022/03/10 12:42:42;;;;;;;20.27;12.47;;;;;;;;;;6099618;23;20190;-86
2022/03/10 12:45:20;;;;;;;16.50;9.67;;;;;;;;;;6098684;23;20211;-87
2022/03/10 12:48:04;;;;;;;17.70;9.17;;;;;;;;;;6100471;23;20261;-87
2022/03/10 12:50:38;;;;;;;15.40;10.70;;;;;;;;;;6100231;23;20193;-86
2022/03/10 12:53:14;;;;;;;20.33;14.97;;;;;;;;;;6100515;23;20180;-85
2022/03/10 12:55:47;;;;;;;13.73;8.77;;;;;;;;;;6100002;23;20207;-86
2022/03/10 12:58:28;;;;;;;7.50;5.50;;;;;;;;;;6100021;23;20194;-85
2022/03/10 13:01:06;;;;;;;20.23;13.83;;;;;;;;;;6100417;23;20175;-87
2022/03/10 13:03:46;;;;;;;15.97;11.37;;;;;;;;;;6100819;23;20218;-87
2022/03/10 13:06:21;;;;;;;15.23;8.33;;;;;;;;;;6099082;23;20179;-87
2022/03/10 13:08:59;;;;;;;16.77;11.90;;;;;;;;;;6100630;23;20203;-86
2022/03/10 13:11:30;;;;;;;20.93;17.20;;;;;;;;;;6099947;23;20190;-85
2022/03/10 13:14:10;;;;;;;17.87;9.80;;;;;;;;;;6088496;23;20176;-86
2022/03/10 13:16:42;;;;;;;23.37;14.57;;;;;;;;;;6100209;23;20212;-86
2022/03/10 13:19:22;;;;;;;15.70;10.33;;;;;;;;;;6099422;23;20175;-87
2022/03/10 13:21:56;;;;;;;14.37;8.50;;;;;;;;;;6099514;23;20234;-86
2022/03/10 13:24:40;;;;;;;8.77;5.87;;;;;;;;;;6099439;23;20185;-86
2022/03/10 13:27:14;;;;;;;12.03;7.33;;;;;;;;;;6124174;23;20180;-86
2022/03/10 13:29:45;;;;;;;15.13;8.60;;;;;;;;;;6099898;23;20399;-87
2022/03/10 13:32:14;;;;;;;14.03;10.00;;;;;;;;;;6099865;23;20183;-86
2022/03/10 13:34:43;;;;;;;14.63;8.47;;;;;;;;;;6099172;23;20183;-85
2022/03/10 13:37:13;;;;;;;15.00;7.33;;;;;;;;;;6100428;23;20187;-86
2022/03/10 13:39:49;;;;;;;9.17;4.77;;;;;;;;;;6099744;23;20186;-85
2022/03/10 13:42:31;;;;;;;15.63;10.00;;;;;;;;;;6098314;23;20180;-84
2022/03/10 13:45:04;;;;;;;12.70;8.10;;;;;;;;;;6096579;23;20214;-84
2022/03/10 13:47:47;;;;;;;4.20;3.87;;;;;;;;;;6099775;23;20194;-85
2022/03/10 13:50:18;;;;;;;14.53;9.67;;;;;;;;;;6099902;23;20211;-85
2022/03/10 13:52:47;;;;;;;11.83;8.23;;;;;;;;;;6100607;23;20274;-86
2022/03/10 13:55:18;;;;;;;7.90;4.73;;;;;;;;;;6100400;23;20183;-86
2022/03/10 13:57:54;;;;;;;10.37;3.90;;;;;;;;;;6100152;23;20192;-86
2022/03/10 14:00:28;;;;;;;12.83;8.90;;;;;;;;;;6099321;23;20190;-85
2022/03/10 14:02:57;;;;;;;5.40;4.87;;;;;;;;;;6099661;23;20179;-85
2022/03/10 14:05:29;;;;;;;10.97;8.53;;;;;;;;;;6099816;23;20185;-85
2022/03/10 14:08:21;;;;;;;12.70;8.33;;;;;;;;;;6099650;23;20184;-87
2022/03/10 14:11:05;;;;;;;13.13;9.50;;;;;;;;;;6098410;23;20192;-85
2022/03/10 14:13:42;;;;;;;11.83;6.47;;;;;;;;;;6098808;23;20230;-85
2022/03/10 14:16:16;;;;;;;12.90;8.97;;;;;;;;;;6098830;23;20181;-85
2022/03/10 14:18:47;;;;;;;13.10;9.60;;;;;;;;;;6098746;23;20178;-85
2022/03/10 14:21:19;;;;;;;8.30;5.80;;;;;;;;;;6125356;23;20176;-84
2022/03/10 14:23:55;;;;;;;7.43;4.23;;;;;;;;;;6099118;23;20182;-84
2022/03/10 14:26:24;;;;;;;20.03;11.07;;;;;;;;;;6099412;23;20179;-84
2022/03/10 14:28:57;;;;;;;15.27;10.63;;;;;;;;;;6099699;23;20182;-85
2022/03/10 14:31:26;;;;;;;11.07;8.40;;;;;;;;;;6099485;23;20207;-84
2022/03/10 14:33:57;;;;;;;12.03;8.07;;;;;;;;;;6124870;23;20182;-83
2022/03/10 14:36:26;;;;;;;14.33;7.50;;;;;;;;;;6075109;23;20266;-84
2022/03/10 14:41:45;;;;;;;14.43;9.23;;;;;;;;;;6096128;23;20298;-85
2022/03/10 14:44:16;;;;;;;14.97;11.73;;;;;;;;;;6099239;23;20207;-85
2022/03/10 14:47:05;;;;;;;20.47;13.40;;;;;;;;;;6098713;23;20183;-86
2022/03/10 14:50:05;;;;;;;21.53;15.50;;;;;;;;;;6097805;23;20196;-87
2022/03/10 14:56:45;;;;;;;9.97;7.73;;;;;;;;;;5846158;24;20189;-84
2022/03/10 14:59:14;;;;;;;9.40;6.53;;;;;;;;;;5959226;24;20183;-85
2022/03/10 15:01:44;;;;;;;6.13;5.53;;;;;;;;;;5956030;24;20269;-85
2022/03/10 15:04:14;;;;;;;8.63;6.20;;;;;;;;;;5971790;23;20201;-86
2022/03/10 15:06:43;;;;;;;19.30;10.73;;;;;;;;;;5982794;23;20183;-85
2022/03/10 15:09:35;;;;;;;14.47;9.87;;;;;;;;;;6007164;23;20206;-85
2022/03/10 15:12:12;;;;;;;12.23;10.03;;;;;;;;;;6008056;23;20283;-84
2022/03/10 15:15:00;;;;;;;5.27;4.57;;;;;;;;;;6008351;23;20193;-88
2022/03/10 15:17:54;;;;;;;9.00;5.33;;;;;;;;;;6008660;23;20186;-86
2022/03/10 15:20:28;;;;;;;9.30;5.57;;;;;;;;;;5985945;23;20177;-86
2022/03/10 15:23:11;;;;;;;15.20;8.90;;;;;;;;;;6010227;23;20236;-86
2022/03/10 15:25:54;;;;;;;14.10;8.77;;;;;;;;;;6007214;23;20193;-86
2022/03/10 15:28:35;;;;;;;14.93;10.23;;;;;;;;;;6008282;23;20184;-86
2022/03/10 15:31:14;;;;;;;15.23;11.43;;;;;;;;;;6007275;23;20202;-86
2022/03/10 15:33:49;;;;;;;14.10;8.97;;;;;;;;;;6064587;23;20184;-87
2022/03/10 15:36:24;;;;;;;4.23;3.50;;;;;;;;;;6102179;23;20187;-87
2022/03/10 15:39:08;;;;;;;16.47;9.80;;;;;;;;;;6126994;23;20228;-87
2022/03/10 15:41:41;;;;;;;10.83;8.40;;;;;;;;;;6100049;23;20175;-86
2022/03/10 15:44:15;;;;;;;18.93;11.93;;;;;;;;;;6086883;23;20179;-86
2022/03/10 15:46:51;;;;;;;13.23;9.30;;;;;;;;;;6099411;23;20187;-86
2022/03/10 15:49:27;;;;;;;17.40;12.77;;;;;;;;;;6100223;23;20185;-86
2022/03/10 15:51:57;;;;;;;13.60;9.40;;;;;;;;;;6099460;23;20234;-86
2022/03/10 15:54:30;;;;;;;2.40;2.23;;;;;;;;;;6098745;23;20207;-87
2022/03/10 15:57:05;;;;;;;8.10;5.63;;;;;;;;;;6098043;23;20183;-87
2022/03/10 15:59:42;;;;;;;14.60;9.80;;;;;;;;;;6098425;23;20203;-86
2022/03/10 16:02:21;;;;;;;17.77;11.03;;;;;;;;;;6098542;23;20176;-87
2022/03/10 16:05:06;;;;;;;;;;;;;;;;;;;;;
2022/03/10 16:07:36;;;;;;;19.03;13.13;;;;;;;;;;6088605;23;20182;-86
2022/03/10 16:10:06;;;;;;;12.60;9.70;;;;;;;;;;6097127;23;20199;-86
2022/03/10 16:12:34;;;;;;;13.97;8.83;;;;;;;;;;6123088;23;20198;-86
2022/03/10 16:15:04;;;;;;;15.97;11.40;;;;;;;;;;6098245;23;20199;-86
2022/03/10 16:17:33;;;;;;;17.50;9.20;;;;;;;;;;6098466;23;20188;-86
2022/03/10 16:20:07;;;;;;;12.73;9.23;;;;;;;;;;6099460;23;20174;-86
2022/03/10 16:22:38;;;;;;;12.10;8.37;;;;;;;;;;6100425;23;20194;-87
2022/03/10 16:25:10;;;;;;;11.73;7.97;;;;;;;;;;6101035;23;20179;-87
2022/03/10 16:27:39;;;;;;;12.57;8.07;;;;;;;;;;6100884;23;20235;-86
2022/03/10 16:30:11;;;;;;;13.87;9.50;;;;;;;;;;6126568;23;20192;-87
2022/03/10 16:32:42;;;;;;;15.77;10.93;;;;;;;;;;6100254;23;20187;-87
2022/03/10 16:35:13;;;;;;;17.10;8.93;;;;;;;;;;6100393;23;20191;-86
2022/03/10 16:37:42;;;;;;;12.60;10.03;;;;;;;;;;6101248;23;20247;-87